createdAt,value
2023-10-05T00:02:11.016Z,37.83
2023-10-05T00:04:45.197Z,37.48
2023-10-05T00:07:25.822Z,37.78
2023-10-05T00:09:54.692Z,37.57
2023-10-05T00:12:25.197Z,37.73
2023-10-05T00:15:24.184Z,38.33
2023-10-05T00:17:52.939Z,39.90
2023-10-05T00:20:36.364Z,37.99
2023-10-05T00:23:05.884Z,37.81
2023-10-05T00:25:35.070Z,37.27
2023-10-05T00:28:10.021Z,37.14
2023-10-05T00:30:39.792Z,36.81
2023-10-05T00:33:14.084Z,37.88
2023-10-05T00:35:42.700Z,38.61
2023-10-05T00:38:20.907Z,38.48
2023-10-05T00:41:00.302Z,38.41
2023-10-05T00:43:29.544Z,37.84
2023-10-05T00:46:01.404Z,38.90
2023-10-05T00:48:32.645Z,39.27
2023-10-05T00:51:27.493Z,38.55
2023-10-05T00:53:59.073Z,39.21
2023-10-05T00:56:31.147Z,39.74
2023-10-05T00:59:08.924Z,39.98
2023-10-05T01:01:55.604Z,40.48
2023-10-05T01:04:55.273Z,41.60
2023-10-05T01:07:46.176Z,41.80
2023-10-05T01:10:18.215Z,40.85
2023-10-05T01:12:50.200Z,41.53
2023-10-05T01:15:25.016Z,39.71
2023-10-05T01:17:54.653Z,39.81
2023-10-05T01:20:23.295Z,41.11
2023-10-05T01:22:52.854Z,40.50
2023-10-05T01:25:21.457Z,41.93
2023-10-05T01:27:53.520Z,41.83
2023-10-05T01:30:23.596Z,41.29
2023-10-05T01:32:52.331Z,41.88
2023-10-05T01:35:21.276Z,42.95
2023-10-05T01:37:54.873Z,43.79
2023-10-05T01:40:23.628Z,43.71
2023-10-05T01:42:54.536Z,43.77
2023-10-05T01:45:35.956Z,44.59
2023-10-05T01:48:07.265Z,44.74
2023-10-05T01:50:35.826Z,45.12
2023-10-05T01:53:11.287Z,46.33
2023-10-05T01:55:41.684Z,47.96
2023-10-05T01:58:11.480Z,47.93
2023-10-05T02:00:43.833Z,48.21
2023-10-05T02:03:14.703Z,48.69
2023-10-05T02:05:44.442Z,48.30
2023-10-05T02:08:16.781Z,47.21
2023-10-05T02:10:48.806Z,47.42
2023-10-05T02:13:17.478Z,48.24
2023-10-05T02:15:50.333Z,48.38
2023-10-05T02:18:36.748Z,46.52
2023-10-05T02:21:10.374Z,45.88
2023-10-05T02:23:46.622Z,46.10
2023-10-05T02:26:35.935Z,48.14
2023-10-05T02:29:19.991Z,48.88
2023-10-05T02:31:58.414Z,49.97
2023-10-05T02:34:31.851Z,50.79
2023-10-05T02:37:02.527Z,50.92
2023-10-05T02:39:34.757Z,52.30
2023-10-05T02:42:05.847Z,51.63
2023-10-05T02:44:37.887Z,52.37
2023-10-05T02:47:13.268Z,52.25
2023-10-05T02:49:46.649Z,53.30
2023-10-05T02:52:16.210Z,52.46
2023-10-05T02:54:51.701Z,54.49
2023-10-05T02:57:22.110Z,51.54
2023-10-05T02:59:52.643Z,52.00
2023-10-05T03:02:21.246Z,50.66
2023-10-05T03:04:50.892Z,50.11
2023-10-05T03:07:21.324Z,49.26
2023-10-05T03:09:51.688Z,48.67
2023-10-05T03:12:22.899Z,49.04
2023-10-05T03:14:56.619Z,48.19
2023-10-05T03:17:28.915Z,48.67
2023-10-05T03:19:57.885Z,48.34
2023-10-05T03:22:26.660Z,48.95
2023-10-05T03:24:56.590Z,49.17
2023-10-05T03:27:25.309Z,50.27
2023-10-05T03:29:55.102Z,49.58
2023-10-05T03:32:28.343Z,50.60
2023-10-05T03:35:03.479Z,50.54
2023-10-05T03:37:33.970Z,52.11
2023-10-05T03:40:05.391Z,52.68
2023-10-05T03:42:34.338Z,52.26
2023-10-05T03:45:06.130Z,53.76
2023-10-05T03:47:39.894Z,54.63
2023-10-05T03:50:10.915Z,54.72
2023-10-05T03:52:40.116Z,54.81
2023-10-05T03:55:15.105Z,55.30
2023-10-05T03:57:44.219Z,55.57
2023-10-05T04:00:26.279Z,55.71
2023-10-05T04:02:56.102Z,56.30
2023-10-05T04:05:25.858Z,56.03
2023-10-05T04:07:55.205Z,56.21
2023-10-05T04:10:40.596Z,56.09
2023-10-05T04:13:08.704Z,54.97
2023-10-05T04:15:37.192Z,54.77
2023-10-05T04:18:06.114Z,55.59
2023-10-05T04:20:35.587Z,55.29
2023-10-05T04:23:04.111Z,55.18
2023-10-05T04:25:32.747Z,55.12
2023-10-05T04:28:01.369Z,56.91
2023-10-05T04:30:30.191Z,55.06
2023-10-05T04:32:59.650Z,53.97
2023-10-05T04:35:31.699Z,53.84
2023-10-05T04:38:02.309Z,53.46
2023-10-05T04:40:36.441Z,53.81
2023-10-05T04:43:07.313Z,53.58
2023-10-05T04:45:38.679Z,52.04
2023-10-05T04:48:09.628Z,52.09
2023-10-05T04:50:37.653Z,52.57
2023-10-05T04:53:11.924Z,52.55
2023-10-05T04:55:44.742Z,52.64
2023-10-05T04:58:26.216Z,52.62
2023-10-05T05:01:13.565Z,52.69
2023-10-05T05:03:53.731Z,53.18
2023-10-05T05:06:23.273Z,54.49
2023-10-05T05:08:52.773Z,54.38
2023-10-05T05:11:22.276Z,55.22
2023-10-05T05:13:54.157Z,55.40
2023-10-05T05:16:23.254Z,55.58
2023-10-05T05:18:51.948Z,56.03
2023-10-05T05:21:20.569Z,55.24
2023-10-05T05:23:52.474Z,54.34
2023-10-05T05:26:21.214Z,55.41
2023-10-05T05:28:51.307Z,55.30
2023-10-05T05:31:22.861Z,55.30
2023-10-05T05:33:51.491Z,56.40
2023-10-05T05:36:19.911Z,55.31
2023-10-05T05:38:50.562Z,54.87
2023-10-05T05:41:21.721Z,56.46
2023-10-05T05:43:50.533Z,54.93
2023-10-05T05:46:19.335Z,55.02
2023-10-05T05:48:51.112Z,55.44
2023-10-05T05:51:20.067Z,55.91
2023-10-05T05:53:49.156Z,55.25
2023-10-05T05:56:21.583Z,54.32
2023-10-05T05:58:52.257Z,55.00
2023-10-05T06:01:22.803Z,54.79
2023-10-05T06:03:51.530Z,54.39
2023-10-05T06:06:23.361Z,55.22
2023-10-05T06:08:51.872Z,54.91
2023-10-05T06:11:21.590Z,54.10
2023-10-05T06:13:50.312Z,54.25
2023-10-05T06:16:20.307Z,53.49
2023-10-05T06:18:48.877Z,54.10
2023-10-05T06:21:17.370Z,54.23
2023-10-05T06:23:45.913Z,54.20
2023-10-05T06:26:14.456Z,54.28
2023-10-05T06:28:43.061Z,53.33
2023-10-05T06:31:15.092Z,53.90
2023-10-05T06:33:45.493Z,52.88
2023-10-05T06:36:15.546Z,53.57
2023-10-05T06:38:45.632Z,53.13
2023-10-05T06:41:15.195Z,54.03
2023-10-05T06:43:45.037Z,54.29
2023-10-05T06:46:20.130Z,54.45
2023-10-05T06:48:51.710Z,55.11
2023-10-05T06:51:31.184Z,58.14
2023-10-05T06:54:03.146Z,58.23
2023-10-05T06:56:31.867Z,59.10
2023-10-05T06:59:00.484Z,59.66
2023-10-05T07:01:29.425Z,59.80
2023-10-05T07:04:01.157Z,59.88
2023-10-05T07:06:35.022Z,58.82
2023-10-05T07:09:03.726Z,60.52
2023-10-05T07:11:32.958Z,60.94
2023-10-05T07:14:02.440Z,62.52
2023-10-05T07:16:31.649Z,62.43
2023-10-05T07:19:00.159Z,62.16
2023-10-05T07:21:28.941Z,63.32
2023-10-05T07:23:57.512Z,63.14
2023-10-05T07:26:26.015Z,64.56
2023-10-05T07:28:55.294Z,64.89
2023-10-05T07:31:27.344Z,64.25
2023-10-05T07:33:56.631Z,63.46
2023-10-05T07:36:25.347Z,64.81
2023-10-05T07:38:53.848Z,64.85
2023-10-05T07:41:22.706Z,62.51
2023-10-05T07:46:41.029Z,65.93
2023-10-05T07:49:09.944Z,64.54
2023-10-05T07:51:38.814Z,66.16
2023-10-05T07:54:07.870Z,66.04
2023-10-05T07:56:37.089Z,67.78
2023-10-05T07:59:06.745Z,66.29
2023-10-05T08:01:35.445Z,67.10
2023-10-05T08:04:04.394Z,66.18
2023-10-05T08:06:32.980Z,66.92
2023-10-05T08:09:01.479Z,66.12
2023-10-05T08:11:30.074Z,67.12
2023-10-05T08:14:00.094Z,66.11
2023-10-05T08:16:28.565Z,65.11
2023-10-05T08:18:57.251Z,64.07
2023-10-05T08:21:25.724Z,63.48
2023-10-05T08:23:54.322Z,63.85
2023-10-05T08:26:23.000Z,63.25
2023-10-05T08:28:53.092Z,63.64
2023-10-05T08:31:25.804Z,64.51
2023-10-05T08:33:56.228Z,64.82
2023-10-05T08:36:27.268Z,64.49
2023-10-05T08:38:59.651Z,64.20
2023-10-05T08:41:34.004Z,63.86
2023-10-05T08:44:24.509Z,64.29
2023-10-05T08:46:54.744Z,63.30
2023-10-05T08:49:23.405Z,64.19
2023-10-05T08:52:03.570Z,63.47
2023-10-05T08:54:35.640Z,65.89
2023-10-05T08:57:12.104Z,65.82
2023-10-05T08:59:50.099Z,67.93
2023-10-05T09:02:24.134Z,68.79
2023-10-05T09:05:02.322Z,69.25
2023-10-05T09:07:41.139Z,69.44
2023-10-05T09:10:17.681Z,70.97
2023-10-05T09:12:51.481Z,71.64
2023-10-05T09:15:24.104Z,71.75
2023-10-05T09:18:22.047Z,73.09
2023-10-05T09:20:53.887Z,72.84
2023-10-05T09:23:27.562Z,73.92
2023-10-05T09:25:56.427Z,73.21
2023-10-05T09:28:52.539Z,73.33
2023-10-05T09:31:22.257Z,73.50
2023-10-05T09:33:55.790Z,73.63
2023-10-05T09:36:25.006Z,70.62
2023-10-05T09:38:57.114Z,70.16
2023-10-05T09:41:28.478Z,71.83
2023-10-05T09:44:10.042Z,70.99
2023-10-05T09:46:39.979Z,69.23
2023-10-05T09:49:10.672Z,69.56
2023-10-05T09:51:44.830Z,70.05
2023-10-05T09:54:13.939Z,70.64
2023-10-05T09:56:45.082Z,70.39
2023-10-05T09:59:21.141Z,70.17
2023-10-05T10:01:52.570Z,70.66
2023-10-05T10:04:42.460Z,71.69
2023-10-05T10:07:25.420Z,70.77
2023-10-05T10:09:56.116Z,72.26
2023-10-05T10:12:43.667Z,72.26
2023-10-05T10:15:27.597Z,72.69
2023-10-05T10:18:06.079Z,73.06
2023-10-05T10:20:37.317Z,72.89
2023-10-05T10:23:25.107Z,73.86
2023-10-05T10:26:08.522Z,73.60
2023-10-05T10:28:52.223Z,73.92
2023-10-05T10:31:43.545Z,74.49
2023-10-05T10:34:48.388Z,74.41
2023-10-05T10:37:37.336Z,75.40
2023-10-05T10:40:21.725Z,75.88
2023-10-05T10:42:57.524Z,75.81
2023-10-05T10:45:30.838Z,76.13
2023-10-05T10:47:59.820Z,76.27
2023-10-05T10:50:33.555Z,76.23
2023-10-05T10:53:06.548Z,76.27
2023-10-05T10:55:37.721Z,76.62
2023-10-05T10:58:11.104Z,75.79
2023-10-05T11:00:45.618Z,75.93
2023-10-05T11:03:14.926Z,76.91
2023-10-05T11:05:46.471Z,77.25
2023-10-05T11:08:16.026Z,77.76
2023-10-05T11:10:45.369Z,77.46
2023-10-05T11:13:22.971Z,78.14
2023-10-05T11:16:02.969Z,77.81
2023-10-05T11:18:33.729Z,78.23
2023-10-05T11:21:19.331Z,76.81
2023-10-05T11:23:51.249Z,76.93
2023-10-05T11:26:52.242Z,77.70
2023-10-05T11:29:22.809Z,78.47
2023-10-05T11:32:24.759Z,78.04
2023-10-05T11:35:17.083Z,77.45
2023-10-05T11:38:01.928Z,77.09
2023-10-05T11:40:50.866Z,78.29
2023-10-05T11:43:20.561Z,77.95
2023-10-05T11:46:26.328Z,78.26
2023-10-05T11:48:58.324Z,78.39
2023-10-05T11:51:44.717Z,78.24
2023-10-05T11:54:14.840Z,78.10
2023-10-05T11:56:43.135Z,78.49
2023-10-05T11:59:13.050Z,79.08
2023-10-05T12:01:45.620Z,78.99
2023-10-05T12:04:17.247Z,79.07
2023-10-05T12:06:46.016Z,79.65
2023-10-05T12:09:34.752Z,79.69
2023-10-05T12:12:05.565Z,80.01
2023-10-05T12:14:35.071Z,80.35
2023-10-05T12:17:03.988Z,80.45
2023-10-05T12:19:33.247Z,80.61
2023-10-05T12:22:04.149Z,80.54
2023-10-05T12:24:33.040Z,81.01
2023-10-05T12:27:15.804Z,80.39
2023-10-05T12:29:47.412Z,80.81
2023-10-05T12:32:18.939Z,81.47
2023-10-05T12:34:50.601Z,80.80
2023-10-05T12:37:23.853Z,81.61
2023-10-05T12:39:52.377Z,81.08
2023-10-05T12:42:22.232Z,81.27
2023-10-05T12:44:51.262Z,81.75
2023-10-05T12:47:19.980Z,81.00
2023-10-05T12:49:50.491Z,81.34
2023-10-05T12:52:19.392Z,81.43
2023-10-05T12:54:47.991Z,80.94
2023-10-05T12:57:21.179Z,80.57
2023-10-05T12:59:52.060Z,80.39
2023-10-05T13:02:21.289Z,79.16
2023-10-05T13:04:49.995Z,79.84
2023-10-05T13:07:24.014Z,78.70
2023-10-05T13:10:02.158Z,79.12
2023-10-05T13:12:33.544Z,77.45
2023-10-05T13:15:06.211Z,76.86
2023-10-05T13:17:40.117Z,75.76
2023-10-05T13:20:17.063Z,75.04
2023-10-05T13:22:48.239Z,75.56
2023-10-05T13:25:16.921Z,74.21
2023-10-05T13:27:45.527Z,71.59
2023-10-05T13:30:24.682Z,70.92
2023-10-05T13:33:00.078Z,71.45
2023-10-05T13:35:32.194Z,70.50
2023-10-05T13:38:00.921Z,67.13
2023-10-05T13:40:37.045Z,66.68
2023-10-05T13:43:06.695Z,66.94
2023-10-05T13:45:39.345Z,66.04
2023-10-05T13:48:11.202Z,65.41
2023-10-05T13:50:40.488Z,64.03
2023-10-05T13:53:12.410Z,64.27
2023-10-05T13:55:41.132Z,64.63
2023-10-05T13:58:13.206Z,64.35
2023-10-05T14:00:45.043Z,64.52
2023-10-05T14:03:15.393Z,65.17
2023-10-05T14:05:53.273Z,66.34
2023-10-05T14:08:25.276Z,65.92
2023-10-05T14:10:53.842Z,65.86
2023-10-05T14:13:22.429Z,66.26
2023-10-05T14:15:51.190Z,67.46
2023-10-05T14:18:19.797Z,66.93
2023-10-05T14:20:52.285Z,67.86
2023-10-05T14:23:23.572Z,67.87
2023-10-05T14:25:52.152Z,67.67
2023-10-05T14:28:20.879Z,67.32
2023-10-05T14:30:52.048Z,66.76
2023-10-05T14:33:25.230Z,67.49
2023-10-05T14:35:54.000Z,67.34
2023-10-05T14:38:24.864Z,66.77
2023-10-05T14:40:58.703Z,65.97
2023-10-05T14:43:33.432Z,65.17
2023-10-05T14:46:10.639Z,63.84
2023-10-05T14:48:42.661Z,64.15
2023-10-05T14:51:18.337Z,63.51
2023-10-05T14:53:46.951Z,63.85
2023-10-05T14:56:16.484Z,63.03
2023-10-05T14:58:48.462Z,62.94
2023-10-05T15:01:17.122Z,62.65
2023-10-05T15:03:47.641Z,62.79
2023-10-05T15:06:17.270Z,61.96
2023-10-05T15:08:48.212Z,61.79
2023-10-05T15:11:17.838Z,62.34
2023-10-05T15:13:46.906Z,61.57
2023-10-05T15:16:15.538Z,62.63
2023-10-05T15:18:45.877Z,61.20
2023-10-05T15:21:14.442Z,60.53
2023-10-05T15:23:43.019Z,61.22
2023-10-05T15:26:13.659Z,61.12
2023-10-05T15:28:44.782Z,60.24
2023-10-05T15:31:14.317Z,58.96
2023-10-05T15:33:44.048Z,58.80
2023-10-05T15:36:12.727Z,58.14
2023-10-05T15:38:41.561Z,58.30
2023-10-05T15:41:10.061Z,58.56
2023-10-05T15:43:39.187Z,58.13
2023-10-05T15:46:09.008Z,57.80
2023-10-05T15:48:37.585Z,56.19
2023-10-05T15:51:06.250Z,56.41
2023-10-05T15:53:34.876Z,55.14
2023-10-05T15:56:05.082Z,54.31
2023-10-05T15:58:34.373Z,52.83
2023-10-05T16:01:05.692Z,52.75
2023-10-05T16:03:36.274Z,52.60
2023-10-05T16:06:05.635Z,53.10
2023-10-05T16:08:34.132Z,53.82
2023-10-05T16:11:04.598Z,52.22
2023-10-05T16:13:32.518Z,51.97
2023-10-05T16:16:01.620Z,51.67
2023-10-05T16:18:31.719Z,50.53
2023-10-05T16:21:00.212Z,50.37
2023-10-05T16:23:28.719Z,50.39
2023-10-05T16:25:57.326Z,51.71
2023-10-05T16:28:25.982Z,49.60
2023-10-05T16:30:56.439Z,51.27
2023-10-05T16:33:25.755Z,50.34
2023-10-05T16:35:54.279Z,50.88
2023-10-05T16:38:25.716Z,50.26
2023-10-05T16:40:59.034Z,50.43
2023-10-05T16:43:28.195Z,50.69
2023-10-05T16:46:00.336Z,49.77
2023-10-05T16:48:28.986Z,49.69
2023-10-05T16:50:57.555Z,49.70
2023-10-05T16:53:28.140Z,47.93
2023-10-05T16:55:56.575Z,48.36
2023-10-05T16:58:25.431Z,47.53
2023-10-05T17:00:54.474Z,47.67
2023-10-05T17:03:23.495Z,48.50
2023-10-05T17:05:52.175Z,48.75
2023-10-05T17:08:23.297Z,48.85
2023-10-05T17:10:51.896Z,48.36
2023-10-05T17:13:20.521Z,48.88
2023-10-05T17:15:49.190Z,48.89
2023-10-05T17:18:19.616Z,48.42
2023-10-05T17:20:48.284Z,47.94
2023-10-05T17:23:16.826Z,46.81
2023-10-05T17:25:46.131Z,46.76
2023-10-05T17:28:14.749Z,45.84
2023-10-05T17:30:44.538Z,46.29
2023-10-05T17:33:13.126Z,47.94
2023-10-05T17:35:42.820Z,47.21
2023-10-05T17:38:12.709Z,45.96
2023-10-05T17:40:41.452Z,46.85
2023-10-05T17:43:10.917Z,46.46
2023-10-05T17:45:44.984Z,47.13
2023-10-05T17:48:13.623Z,47.17
2023-10-05T17:50:44.163Z,46.63
2023-10-05T17:53:12.832Z,47.12
2023-10-05T17:55:42.387Z,45.12
2023-10-05T17:58:13.749Z,46.76
2023-10-05T18:00:42.302Z,44.79
2023-10-05T18:03:11.033Z,44.73
2023-10-05T18:05:40.755Z,45.41
2023-10-05T18:08:09.873Z,44.43
2023-10-05T18:10:43.381Z,43.98
2023-10-05T18:13:12.021Z,42.41
2023-10-05T18:15:40.908Z,41.77
2023-10-05T18:18:09.854Z,41.23
2023-10-05T18:20:39.929Z,40.30
2023-10-05T18:23:09.137Z,39.02
2023-10-05T18:25:37.906Z,39.67
2023-10-05T18:28:11.598Z,38.38
2023-10-05T18:30:41.885Z,38.25
2023-10-05T18:33:10.473Z,38.72
2023-10-05T18:35:39.975Z,37.21
2023-10-05T18:38:08.647Z,37.43
2023-10-05T18:40:37.863Z,37.94
2023-10-05T18:43:09.200Z,40.06
2023-10-05T18:45:41.799Z,39.03
2023-10-05T18:48:10.438Z,38.54
2023-10-05T18:50:39.333Z,38.17
2023-10-05T18:53:07.929Z,38.16
2023-10-05T18:55:36.795Z,39.53
2023-10-05T18:58:06.287Z,38.82
2023-10-05T19:00:34.846Z,37.66
2023-10-05T19:03:05.212Z,36.64
2023-10-05T19:05:35.002Z,36.44
2023-10-05T19:08:03.539Z,34.91
2023-10-05T19:10:35.237Z,34.39
2023-10-05T19:13:03.788Z,36.08
2023-10-05T19:15:32.606Z,35.60
2023-10-05T19:18:01.224Z,35.80
2023-10-05T19:20:30.181Z,35.12
2023-10-05T19:22:58.775Z,35.60
2023-10-05T19:25:27.339Z,34.24
2023-10-05T19:27:55.944Z,35.40
2023-10-05T19:30:24.574Z,36.23
2023-10-05T19:32:53.324Z,34.64
2023-10-05T19:35:23.183Z,33.99
2023-10-05T19:37:51.710Z,33.97
2023-10-05T19:40:20.363Z,33.72
2023-10-05T19:42:52.178Z,33.25
2023-10-05T19:45:22.427Z,33.33
2023-10-05T19:47:50.862Z,33.01
2023-10-05T19:50:19.474Z,33.13
2023-10-05T19:52:48.167Z,34.19
2023-10-05T19:55:16.790Z,33.32
2023-10-05T19:57:45.554Z,32.64
2023-10-05T20:00:14.663Z,31.94
2023-10-05T20:02:43.503Z,32.26
2023-10-05T20:05:12.407Z,31.42
2023-10-05T20:07:41.796Z,31.52
2023-10-05T20:10:10.378Z,31.82
2023-10-05T20:12:38.868Z,31.58
2023-10-05T20:15:08.127Z,31.07
2023-10-05T20:17:36.664Z,31.87
2023-10-05T20:20:13.905Z,32.01
2023-10-05T20:22:42.567Z,33.65
2023-10-05T20:25:11.250Z,31.34
2023-10-05T20:27:40.398Z,31.71
2023-10-05T20:30:11.669Z,31.61
2023-10-05T20:32:40.580Z,32.17
2023-10-05T20:35:10.327Z,32.81
2023-10-05T20:37:38.822Z,32.24
2023-10-05T20:40:10.760Z,32.13
2023-10-05T20:42:40.244Z,32.18
2023-10-05T20:45:09.460Z,31.55
2023-10-05T20:47:38.112Z,31.19
2023-10-05T20:50:07.252Z,32.36
2023-10-05T20:52:35.795Z,31.65
2023-10-05T20:55:05.156Z,31.30
2023-10-05T20:57:33.792Z,31.33
2023-10-05T21:00:02.137Z,31.37
2023-10-05T21:02:30.649Z,31.73
2023-10-05T21:04:59.355Z,31.69
2023-10-05T21:07:28.026Z,31.30
2023-10-05T21:09:56.686Z,31.62
2023-10-05T21:12:25.168Z,31.05
2023-10-05T21:14:53.492Z,32.01
2023-10-05T21:17:22.259Z,32.07
2023-10-05T21:19:50.939Z,32.32
2023-10-05T21:22:19.505Z,31.89
2023-10-05T21:24:48.054Z,32.51
2023-10-05T21:27:16.655Z,31.02
2023-10-05T21:29:45.219Z,31.35
2023-10-05T21:32:13.811Z,31.93
2023-10-05T21:34:42.444Z,32.02
2023-10-05T21:37:11.255Z,31.76
2023-10-05T21:39:39.892Z,31.74
2023-10-05T21:42:08.409Z,31.83
2023-10-05T21:44:37.085Z,31.91
2023-10-05T21:47:05.720Z,30.57
2023-10-05T21:49:34.405Z,31.32
2023-10-05T21:52:02.888Z,30.81
2023-10-05T21:54:31.448Z,30.84
2023-10-05T21:56:59.948Z,30.96
2023-10-05T21:59:28.633Z,31.67
2023-10-05T22:01:57.320Z,30.64
2023-10-05T22:04:26.387Z,31.17
2023-10-05T22:06:55.012Z,31.66
2023-10-05T22:09:23.342Z,31.00
2023-10-05T22:11:52.228Z,31.40
2023-10-05T22:14:20.840Z,30.38
2023-10-05T22:16:49.448Z,32.35
2023-10-05T22:19:18.649Z,31.55
2023-10-05T22:21:47.476Z,31.21
2023-10-05T22:24:15.979Z,31.03
2023-10-05T22:26:44.711Z,30.60
2023-10-05T22:29:13.298Z,31.31
2023-10-05T22:31:42.348Z,31.19
2023-10-05T22:34:10.896Z,31.21
2023-10-05T22:36:39.402Z,31.55
2023-10-05T22:39:08.148Z,30.79
2023-10-05T22:41:37.170Z,30.66
2023-10-05T22:44:06.596Z,31.87
2023-10-05T22:46:35.594Z,31.94
2023-10-05T22:49:04.181Z,31.62
2023-10-05T22:51:32.783Z,31.10
2023-10-05T22:54:01.386Z,30.61
2023-10-05T22:56:33.004Z,30.78
2023-10-05T22:59:06.299Z,30.54
2023-10-05T23:01:42.691Z,31.48
2023-10-05T23:04:14.097Z,31.08
2023-10-05T23:06:42.951Z,31.07
2023-10-05T23:09:11.775Z,31.53
2023-10-05T23:11:41.809Z,31.51
2023-10-05T23:14:12.677Z,30.88
2023-10-05T23:16:41.169Z,32.55
2023-10-05T23:19:12.433Z,32.90
2023-10-05T23:21:46.078Z,32.72
2023-10-05T23:24:15.872Z,32.60
2023-10-05T23:26:46.938Z,32.09
2023-10-05T23:29:21.876Z,32.94
2023-10-05T23:31:51.530Z,32.54
2023-10-05T23:34:19.554Z,33.13
2023-10-05T23:36:50.888Z,32.99
2023-10-05T23:39:26.495Z,32.93
2023-10-05T23:41:59.235Z,33.38
2023-10-05T23:44:28.083Z,32.35
2023-10-05T23:47:19.208Z,33.21
2023-10-05T23:49:49.981Z,34.17
2023-10-05T23:52:19.484Z,32.63
2023-10-05T23:54:48.095Z,32.54
2023-10-05T23:57:34.418Z,32.90
